Time;durP1;ratioP1;P1;durP2;ratioP2;P2;SDS_P1;SDS_P2;PMS_P1;PMS_P2;Temp;Humidity;BMP_temperature;BMP_pressure;BME280_temperature;BME280_humidity;BME280_pressure;Samples;Min_cycle;Max_cycle;Signal;HPM_P1;HPM_P2
2021/11/08 00:00:12;;;;;;;23.17;15.95;;;11.40;84.30;;;;;;5072755;28;20063;-74
2021/11/08 00:02:38;;;;;;;24.75;15.60;;;11.40;84.50;;;;;;5070233;28;20070;-74
2021/11/08 00:05:06;;;;;;;23.33;15.93;;;11.40;84.60;;;;;;5069976;28;20141;-74
2021/11/08 00:07:32;;;;;;;22.10;15.88;;;11.50;84.60;;;;;;5071204;28;20029;-74
2021/11/08 00:09:58;;;;;;;23.70;15.43;;;11.50;84.50;;;;;;5072339;28;20407;-74
2021/11/08 00:12:24;;;;;;;21.20;15.32;;;11.50;84.30;;;;;;5072618;28;20028;-74
2021/11/08 00:14:55;;;;;;;26.17;16.38;;;11.50;84.20;;;;;;5071391;28;20025;-74
2021/11/08 00:20:10;;;;;;;21.85;15.13;;;11.60;83.80;;;;;;5072699;28;20051;-74
2021/11/08 00:22:39;;;;;;;23.67;15.93;;;11.60;83.70;;;;;;5072370;28;20017;-74
2021/11/08 00:25:05;;;;;;;23.08;15.20;;;11.60;84.00;;;;;;5072710;28;20021;-73
2021/11/08 00:27:30;;;;;;;20.80;14.90;;;11.60;84.10;;;;;;5072472;28;20077;-74
2021/11/08 00:29:57;;;;;;;20.10;14.18;;;11.60;83.90;;;;;;5072370;28;20040;-73
2021/11/08 00:32:22;;;;;;;25.73;15.77;;;11.60;83.70;;;;;;5072823;28;20024;-74
2021/11/08 00:34:48;;;;;;;20.05;14.65;;;11.60;83.50;;;;;;5075571;28;20033;-73
2021/11/08 00:37:14;;;;;;;21.98;16.02;;;11.60;83.50;;;;;;5074701;28;20024;-73
2021/11/08 00:39:40;;;;;;;24.98;15.35;;;11.60;83.40;;;;;;5075853;28;20024;-74
2021/11/08 00:42:06;;;;;;;20.60;14.80;;;11.60;83.60;;;;;;5076124;28;20111;-74
2021/11/08 00:44:33;;;;;;;19.08;14.40;;;11.60;83.50;;;;;;5076068;28;20469;-73
2021/11/08 00:46:59;;;;;;;23.75;15.35;;;11.60;83.00;;;;;;5074497;28;20032;-73
2021/11/08 00:49:26;;;;;;;24.67;15.07;;;11.50;83.00;;;;;;5075900;28;20237;-74
2021/11/08 00:51:53;;;;;;;21.15;15.10;;;11.50;83.20;;;;;;5075735;28;20079;-74
2021/11/08 00:54:19;;;;;;;25.40;15.80;;;11.50;83.60;;;;;;5075679;28;20019;-74
2021/11/08 00:56:49;;;;;;;19.65;13.68;;;11.40;84.30;;;;;;5075809;28;20025;-73
2021/11/08 00:59:16;;;;;;;20.55;14.20;;;11.40;84.50;;;;;;5075739;28;20111;-74
2021/11/08 01:01:45;;;;;;;17.98;13.80;;;11.40;84.90;;;;;;5074441;28;20033;-74
2021/11/08 01:04:16;;;;;;;20.15;13.13;;;11.40;85.00;;;;;;5075458;28;20378;-73
2021/11/08 01:06:42;;;;;;;16.95;13.25;;;11.50;84.80;;;;;;5075687;28;20020;-74
2021/11/08 01:09:08;;;;;;;18.48;13.73;;;11.40;84.70;;;;;;5075346;28;20381;-74
2021/11/08 01:11:34;;;;;;;18.48;13.88;;;11.40;84.90;;;;;;5074400;28;20040;-74
2021/11/08 01:14:00;;;;;;;17.70;12.80;;;11.40;85.20;;;;;;5075609;28;20054;-73
2021/11/08 01:16:26;;;;;;;17.52;12.45;;;11.40;85.20;;;;;;5075271;28;20040;-74
2021/11/08 01:18:54;;;;;;;18.70;12.30;;;11.40;85.10;;;;;;5073850;28;20044;-74
2021/11/08 01:21:20;;;;;;;17.95;11.65;;;11.50;85.30;;;;;;5075129;28;20039;-73
2021/11/08 01:23:46;;;;;;;17.67;11.70;;;11.50;85.10;;;;;;5075213;28;20500;-73
2021/11/08 01:26:14;;;;;;;16.17;11.00;;;11.60;85.10;;;;;;5075252;28;20012;-74
2021/11/08 01:28:44;;;;;;;14.68;10.93;;;11.60;85.20;;;;;;5075089;28;20411;-74
2021/11/08 01:31:11;;;;;;;15.77;11.48;;;11.60;85.20;;;;;;5074832;28;20066;-74
2021/11/08 01:33:39;;;;;;;13.15;9.68;;;11.60;85.20;;;;;;5075014;28;20020;-74
2021/11/08 01:38:42;;;;;;;20.35;13.38;;;11.60;85.30;;;;;;5075219;28;20029;-74
2021/11/08 01:41:09;;;;;;;20.80;13.57;;;11.60;85.10;;;;;;5074949;28;20082;-74
2021/11/08 01:43:35;;;;;;;18.95;13.77;;;11.60;85.00;;;;;;5074904;28;20047;-74
2021/11/08 01:46:02;;;;;;;19.38;13.82;;;11.60;85.00;;;;;;5074449;28;20032;-73
2021/11/08 01:48:28;;;;;;;21.30;13.75;;;11.60;84.90;;;;;;5074650;28;20024;-73
2021/11/08 01:50:54;;;;;;;19.15;12.45;;;11.60;85.00;;;;;;5074604;28;20037;-73
2021/11/08 01:53:23;;;;;;;19.15;12.98;;;11.60;84.80;;;;;;5074637;28;20025;-74
2021/11/08 01:55:49;;;;;;;20.48;14.18;;;11.50;84.70;;;;;;5074770;28;20032;-74
2021/11/08 01:58:15;;;;;;;20.60;12.98;;;11.50;85.20;;;;;;5073080;28;20024;-74
2021/11/08 02:00:41;;;;;;;21.77;13.13;;;11.50;85.70;;;;;;5070234;28;20070;-74
2021/11/08 02:03:06;;;;;;;17.77;12.23;;;11.40;86.00;;;;;;5071682;28;20603;-74
2021/11/08 02:05:32;;;;;;;18.63;12.73;;;11.50;85.90;;;;;;5073089;28;20207;-74
2021/11/08 02:07:58;;;;;;;17.70;12.63;;;11.50;85.70;;;;;;5074114;28;20021;-74
2021/11/08 02:10:24;;;;;;;17.02;12.05;;;11.50;85.40;;;;;;5074437;28;20395;-73
2021/11/08 02:12:50;;;;;;;18.10;12.43;;;11.50;85.30;;;;;;5073861;28;20087;-73
2021/11/08 02:15:19;;;;;;;16.33;12.32;;;11.50;85.40;;;;;;5074118;28;20029;-74
2021/11/08 02:17:47;;;;;;;17.77;11.85;;;11.50;85.70;;;;;;5073767;28;20040;-74
2021/11/08 02:20:26;;;;;;;18.42;12.50;;;11.50;86.40;;;;;;5073748;28;20024;-73
2021/11/08 02:22:53;;;;;;;17.80;12.93;;;11.50;85.90;;;;;;5073888;28;20435;-74
2021/11/08 02:25:21;;;;;;;15.20;12.52;;;11.50;85.80;;;;;;5074047;28;20578;-74
2021/11/08 02:27:48;;;;;;;16.98;11.95;;;11.50;85.80;;;;;;5073726;28;20028;-74
2021/11/08 02:30:14;;;;;;;16.13;11.93;;;11.50;85.80;;;;;;5073572;28;20033;-73
2021/11/08 02:32:40;;;;;;;15.60;11.48;;;11.50;86.00;;;;;;5073618;28;20048;-73
2021/11/08 02:35:10;;;;;;;16.65;12.20;;;11.50;86.30;;;;;;5073481;28;20067;-74
2021/11/08 02:37:36;;;;;;;17.58;11.90;;;11.50;86.40;;;;;;5073720;28;20086;-74
2021/11/08 02:40:03;;;;;;;17.95;12.43;;;11.50;86.20;;;;;;5073581;28;20543;-74
2021/11/08 02:42:28;;;;;;;17.20;11.93;;;11.50;86.20;;;;;;5073625;28;20518;-74
2021/11/08 02:44:55;;;;;;;17.45;11.75;;;11.50;87.10;;;;;;5073218;28;20024;-74
2021/11/08 02:47:22;;;;;;;15.75;11.13;;;11.50;87.30;;;;;;5073644;28;20056;-73
2021/11/08 02:49:50;;;;;;;16.85;11.98;;;11.50;87.70;;;;;;5072730;28;20036;-74
2021/11/08 02:52:23;;;;;;;16.70;12.23;;;11.50;88.10;;;;;;5071077;28;20485;-74
2021/11/08 02:54:51;;;;;;;15.38;11.63;;;11.50;88.30;;;;;;5072065;28;20032;-74
2021/11/08 02:57:19;;;;;;;17.63;12.32;;;11.50;88.40;;;;;;5072076;28;20401;-74
2021/11/08 02:59:46;;;;;;;16.25;11.70;;;11.50;88.80;;;;;;5072323;28;20029;-74
2021/11/08 03:02:14;;;;;;;15.80;11.52;;;11.50;89.00;;;;;;5073201;28;20054;-74
2021/11/08 03:04:42;;;;;;;17.30;12.45;;;11.50;89.10;;;;;;5072651;28;20028;-74
2021/11/08 03:07:10;;;;;;;19.95;11.48;;;11.50;89.50;;;;;;5072981;28;20025;-74
2021/11/08 03:09:41;;;;;;;16.90;11.15;;;11.60;89.20;;;;;;5072843;28;20028;-73
2021/11/08 03:12:13;;;;;;;16.23;11.27;;;11.60;89.60;;;;;;5073245;28;20744;-74
2021/11/08 03:14:46;;;;;;;15.43;10.57;;;11.50;89.60;;;;;;5073119;28;20515;-74
2021/11/08 03:17:16;;;;;;;15.75;10.38;;;11.60;89.60;;;;;;5072843;28;20017;-74
2021/11/08 03:19:43;;;;;;;14.77;9.68;;;11.60;89.10;;;;;;5073169;28;20035;-74
2021/11/08 03:22:16;;;;;;;14.82;10.18;;;11.60;89.00;;;;;;5072980;28;20024;-74
2021/11/08 03:24:50;;;;;;;;;;;11.60;89.50;;;;;;5073410;28;20028;-74
2021/11/08 03:29:54;;;;;;;15.02;9.18;;;11.50;90.30;;;;;;5072615;28;20086;-74
2021/11/08 03:32:22;;;;;;;14.82;9.52;;;11.60;90.20;;;;;;5072914;28;20025;-74
2021/11/08 03:35:00;;;;;;;14.43;9.23;;;11.60;90.20;;;;;;5072811;28;20028;-74
2021/11/08 03:37:27;;;;;;;14.32;9.45;;;11.50;90.40;;;;;;5072780;28;20024;-74
2021/11/08 03:39:53;;;;;;;13.15;9.05;;;11.50;90.50;;;;;;5072710;28;20096;-73
2021/11/08 03:42:19;;;;;;;13.73;9.65;;;11.60;90.60;;;;;;5071519;28;20433;-74
2021/11/08 03:44:46;;;;;;;13.65;9.43;;;11.50;90.50;;;;;;5072472;28;20492;-74
2021/11/08 03:47:12;;;;;;;14.15;8.80;;;11.60;90.40;;;;;;5072301;28;20020;-74
2021/11/08 03:49:38;;;;;;;15.40;9.82;;;11.60;90.20;;;;;;5072391;28;20063;-73
2021/11/08 03:52:05;;;;;;;14.95;10.20;;;11.60;90.10;;;;;;5072867;28;20499;-72
2021/11/08 03:54:30;;;;;;;14.75;11.48;;;11.60;90.20;;;;;;5072795;28;20031;-74
2021/11/08 03:56:56;;;;;;;13.80;10.70;;;11.60;90.10;;;;;;5072372;28;20024;-74
2021/11/08 03:59:22;;;;;;;20.65;10.82;;;11.60;90.10;;;;;;5071225;28;20021;-74
2021/11/08 04:01:49;;;;;;;15.43;10.73;;;11.60;90.30;;;;;;5072530;28;20032;-74
2021/11/08 04:04:14;;;;;;;15.73;10.93;;;11.60;90.30;;;;;;5072624;28;20036;-74
2021/11/08 04:06:41;;;;;;;14.25;11.30;;;11.50;90.30;;;;;;5072516;28;20025;-74
2021/11/08 04:09:09;;;;;;;12.52;10.35;;;11.50;90.40;;;;;;5074636;28;20028;-74
2021/11/08 04:11:35;;;;;;;16.38;10.63;;;11.40;90.50;;;;;;5076328;28;20074;-74
2021/11/08 04:14:03;;;;;;;13.25;10.35;;;11.40;90.60;;;;;;5076469;28;20024;-74
2021/11/08 04:16:30;;;;;;;13.50;10.45;;;11.40;90.70;;;;;;5076105;28;20029;-73
2021/11/08 04:18:58;;;;;;;15.93;11.40;;;11.40;90.60;;;;;;5076150;28;20049;-74
2021/11/08 04:21:26;;;;;;;15.25;10.82;;;11.40;90.80;;;;;;5076433;28;20437;-73
2021/11/08 04:23:52;;;;;;;17.02;10.38;;;11.40;90.90;;;;;;5075363;28;20427;-74
2021/11/08 04:26:22;;;;;;;14.63;10.02;;;11.40;90.90;;;;;;5076081;28;20036;-73
2021/11/08 04:28:54;;;;;;;11.63;9.02;;;11.40;91.10;;;;;;5076253;28;20029;-73
2021/11/08 04:31:22;;;;;;;11.07;8.30;;;11.40;91.10;;;;;;5076133;28;20381;-73
2021/11/08 04:33:53;;;;;;;13.88;8.63;;;11.40;91.10;;;;;;5076111;28;20021;-74
2021/11/08 04:49:01;;;;;;;8.13;6.18;;;11.50;91.20;;;;;;5075687;28;20028;-73
2021/11/08 04:54:28;;;;;;;10.65;6.20;;;11.50;91.30;;;;;;5076039;28;20051;-74
2021/11/08 05:32:07;;;;;;;9.02;3.83;;;11.60;91.50;;;;;;5074885;28;20107;-74
2021/11/08 05:34:33;;;;;;;4.05;3.03;;;11.60;91.40;;;;;;5073921;28;20427;-74
2021/11/08 05:36:59;;;;;;;7.35;3.63;;;11.60;91.50;;;;;;5073540;28;20082;-74
2021/11/08 05:39:25;;;;;;;7.88;4.35;;;11.60;91.50;;;;;;5074953;28;20180;-74
2021/11/08 05:41:50;;;;;;;5.63;4.22;;;11.50;91.40;;;;;;5074914;28;20036;-74
2021/11/08 05:44:16;;;;;;;6.22;4.28;;;11.50;91.50;;;;;;5074557;28;20032;-73
2021/11/08 05:46:42;;;;;;;6.15;4.07;;;11.50;91.50;;;;;;5074753;28;20123;-74
2021/11/08 05:49:08;;;;;;;8.05;3.75;;;11.50;91.60;;;;;;5073402;28;20548;-74
2021/11/08 05:51:34;;;;;;;5.63;3.90;;;11.40;91.80;;;;;;5074610;28;20029;-73
2021/11/08 05:53:59;;;;;;;3.30;3.00;;;11.40;91.80;;;;;;5074573;28;20032;-74
2021/11/08 05:56:41;;;;;;;4.00;2.92;;;11.40;91.90;;;;;;5074672;28;20029;-74
2021/11/08 06:50:11;;;;;;;4.60;1.15;;;11.70;90.20;;;;;;5072289;28;20048;-74
2021/11/08 06:52:37;;;;;;;2.22;1.20;;;11.70;88.60;;;;;;5072944;28;20428;-75
2021/11/08 06:55:06;;;;;;;2.13;1.20;;;11.70;85.70;;;;;;5072319;28;20029;-73
2021/11/08 06:57:42;;;;;;;3.90;1.27;;;11.70;85.00;;;;;;5072710;28;20032;-74
2021/11/08 07:00:09;;;;;;;1.60;1.00;;;11.70;84.60;;;;;;5071964;28;20495;-74
2021/11/08 07:02:34;;;;;;;1.65;0.75;;;11.80;82.30;;;;;;5073313;28;20032;-74
2021/11/08 07:05:00;;;;;;;3.20;0.85;;;11.70;82.20;;;;;;5072690;28;20043;-74
2021/11/08 07:07:26;;;;;;;2.20;1.00;;;11.70;81.30;;;;;;5073227;28;20025;-74
2021/11/08 07:09:51;;;;;;;1.73;0.73;;;11.70;81.80;;;;;;5072881;28;20090;-74
2021/11/08 07:12:17;;;;;;;4.57;1.05;;;11.70;81.50;;;;;;5070868;28;20029;-75
2021/11/08 07:14:43;;;;;;;1.75;0.90;;;11.70;80.90;;;;;;5071788;28;20035;-74
2021/11/08 07:17:09;;;;;;;2.08;1.00;;;11.70;80.70;;;;;;5072791;28;20025;-75
2021/11/08 07:19:35;;;;;;;5.65;1.27;;;11.60;81.60;;;;;;5030492;28;20045;-75
2021/11/08 07:22:02;;;;;;;1.48;1.13;;;11.70;81.00;;;;;;5050817;28;20500;-74
2021/11/08 07:24:27;;;;;;;2.72;1.00;;;11.70;80.90;;;;;;5051101;28;20027;-74
2021/11/08 07:26:53;;;;;;;1.70;1.08;;;11.60;83.40;;;;;;5052155;28;20024;-73
2021/11/08 07:29:21;;;;;;;2.13;1.27;;;11.50;84.00;;;;;;5051382;28;20049;-74
2021/11/08 07:31:47;;;;;;;2.85;1.50;;;11.50;85.20;;;;;;5050995;28;20036;-74
2021/11/08 07:34:13;;;;;;;3.35;1.77;;;11.40;85.50;;;;;;5051083;28;20025;-74
2021/11/08 07:36:39;;;;;;;4.60;3.72;;;11.40;85.90;;;;;;5038924;28;20037;-74
2021/11/08 07:39:07;;;;;;;3.45;2.15;;;11.40;86.00;;;;;;5028329;28;20033;-72
2021/11/08 07:41:32;;;;;;;3.15;2.17;;;11.50;86.50;;;;;;5045533;28;20397;-71
2021/11/08 07:43:58;;;;;;;4.75;3.15;;;11.50;86.90;;;;;;5030333;28;20100;-74
2021/11/08 07:46:24;;;;;;;6.53;4.20;;;11.50;87.20;;;;;;5031186;28;20029;-69
2021/11/08 07:48:50;;;;;;;4.25;3.40;;;11.40;87.50;;;;;;5031474;28;20548;-75
2021/11/08 07:51:17;;;;;;;5.40;4.38;;;11.50;87.70;;;;;;5031426;28;20464;-76
2021/11/08 07:53:44;;;;;;;4.15;2.17;;;11.50;87.90;;;;;;5032241;28;20100;-72
2021/11/08 07:56:10;;;;;;;2.08;1.40;;;11.50;88.10;;;;;;5031073;28;20447;-72
2021/11/08 07:58:37;;;;;;;3.60;1.58;;;11.50;88.20;;;;;;5028761;28;20025;-72
2021/11/08 08:01:04;;;;;;;2.15;1.48;;;11.50;88.00;;;;;;5029700;28;20462;-72
2021/11/08 08:03:30;;;;;;;4.80;1.55;;;11.60;88.20;;;;;;5031118;28;20028;-72
2021/11/08 08:05:57;;;;;;;2.20;1.30;;;11.60;88.30;;;;;;5031308;28;20390;-72
2021/11/08 08:08:23;;;;;;;2.10;1.52;;;11.60;87.60;;;;;;5032138;28;20145;-72
2021/11/08 08:10:51;;;;;;;4.13;1.75;;;11.60;87.10;;;;;;5032297;28;20095;-72
2021/11/08 08:13:20;;;;;;;2.92;1.58;;;11.60;87.40;;;;;;5032329;28;20018;-72
2021/11/08 08:15:47;;;;;;;7.43;2.80;;;11.60;87.30;;;;;;5032697;28;20022;-73
2021/11/08 08:18:13;;;;;;;3.83;2.30;;;11.60;87.00;;;;;;5032310;28;20053;-72
2021/11/08 08:20:39;;;;;;;1.58;1.20;;;11.60;86.60;;;;;;5032550;28;20549;-73
2021/11/08 08:23:05;;;;;;;2.88;1.05;;;11.70;84.60;;;;;;5032202;28;20063;-72
2021/11/08 08:25:31;;;;;;;2.03;0.90;;;11.70;82.10;;;;;;5030691;28;20087;-74
2021/11/08 08:27:58;;;;;;;2.63;1.10;;;11.70;80.40;;;;;;5031698;28;20466;-72
2021/11/08 08:30:25;;;;;;;2.15;1.00;;;11.70;80.10;;;;;;5031868;28;20052;-72
2021/11/08 08:32:51;;;;;;;1.73;0.98;;;11.70;79.70;;;;;;5031071;28;20475;-74
2021/11/08 08:35:17;;;;;;;2.10;0.90;;;11.70;79.30;;;;;;5032581;28;20374;-72
2021/11/08 08:37:44;;;;;;;2.05;0.77;;;11.70;79.10;;;;;;5047959;28;20031;-74
2021/11/08 08:40:10;;;;;;;6.10;1.15;;;11.70;80.30;;;;;;5051440;28;20032;-73
2021/11/08 08:42:36;;;;;;;4.95;1.00;;;11.70;80.90;;;;;;5051902;28;20044;-72
2021/11/08 08:45:06;;;;;;;5.30;1.25;;;11.60;81.20;;;;;;5051948;28;20025;-72
2021/11/08 08:47:31;;;;;;;5.80;1.13;;;11.60;82.30;;;;;;5051780;28;20037;-73
2021/11/08 08:49:57;;;;;;;2.65;1.27;;;11.60;83.60;;;;;;5050930;28;20147;-73
2021/11/08 08:52:23;;;;;;;4.85;1.30;;;11.60;84.60;;;;;;5050341;28;20037;-72
2021/11/08 08:54:49;;;;;;;3.25;1.27;;;11.70;85.40;;;;;;5051323;28;20040;-72
2021/11/08 08:57:15;;;;;;;2.65;1.55;;;11.70;85.30;;;;;;5054021;28;20029;-72
2021/11/08 08:59:42;;;;;;;3.35;1.80;;;11.70;84.50;;;;;;5053816;28;20136;-72
2021/11/08 09:02:08;;;;;;;1.90;1.23;;;11.70;83.60;;;;;;5054688;28;20107;-73
2021/11/08 09:04:35;;;;;;;2.47;1.42;;;11.70;83.40;;;;;;5054645;28;20104;-74
2021/11/08 09:07:01;;;;;;;2.90;2.03;;;11.70;83.70;;;;;;5053130;28;20393;-72
2021/11/08 09:09:26;;;;;;;3.10;2.20;;;11.70;84.20;;;;;;5053407;28;20028;-72
2021/11/08 09:11:52;;;;;;;2.13;1.38;;;11.70;84.80;;;;;;5053936;28;20029;-72
2021/11/08 09:14:18;;;;;;;4.20;1.30;;;11.70;83.50;;;;;;5054456;28;20032;-72
2021/11/08 09:16:44;;;;;;;5.03;1.38;;;11.70;83.10;;;;;;5054204;28;20025;-72
2021/11/08 09:19:10;;;;;;;1.65;1.20;;;11.70;83.10;;;;;;5054534;28;20081;-71
2021/11/08 09:21:36;;;;;;;2.22;1.20;;;11.70;83.30;;;;;;5054863;28;20059;-71
2021/11/08 09:24:04;;;;;;;4.20;1.40;;;11.70;83.40;;;;;;5054497;28;20493;-70
2021/11/08 09:26:31;;;;;;;2.17;1.20;;;11.70;83.60;;;;;;5053557;28;20029;-70
2021/11/08 09:28:58;;;;;;;2.78;1.60;;;11.70;84.40;;;;;;5054650;28;20049;-73
2021/11/08 09:31:26;;;;;;;2.40;1.50;;;11.80;85.00;;;;;;5054501;28;20094;-73
2021/11/08 09:33:57;;;;;;;2.10;1.20;;;11.80;85.30;;;;;;5055068;28;20370;-73
2021/11/08 09:36:24;;;;;;;2.55;1.58;;;11.80;85.30;;;;;;5054562;28;20032;-73
2021/11/08 09:38:58;;;;;;;2.00;1.38;;;11.80;85.10;;;;;;5054328;28;20021;-72
2021/11/08 09:41:32;;;;;;;1.65;1.40;;;11.90;85.10;;;;;;5053577;28;20017;-73
2021/11/08 09:44:01;;;;;;;1.95;1.30;;;11.90;84.90;;;;;;5054233;28;20028;-73
2021/11/08 09:46:26;;;;;;;4.40;1.80;;;11.90;84.30;;;;;;5052441;28;20025;-71
2021/11/08 09:48:52;;;;;;;1.98;1.65;;;11.90;82.90;;;;;;5051447;28;20029;-72
2021/11/08 09:51:19;;;;;;;3.40;1.20;;;12.00;82.00;;;;;;5051706;28;20106;-72
2021/11/08 09:53:45;;;;;;;3.92;1.40;;;12.10;81.20;;;;;;5053255;28;20021;-72
2021/11/08 09:56:13;;;;;;;1.38;0.90;;;12.10;80.90;;;;;;5054362;28;20380;-72
2021/11/08 09:58:39;;;;;;;1.08;0.95;;;12.10;80.80;;;;;;5054470;28;20043;-73
2021/11/08 10:01:11;;;;;;;1.60;1.00;;;12.20;80.90;;;;;;5053039;28;20025;-73
2021/11/08 10:03:37;;;;;;;2.50;1.20;;;12.20;81.00;;;;;;5052735;28;20020;-73
2021/11/08 10:06:05;;;;;;;1.20;0.82;;;12.20;80.60;;;;;;5053441;28;20346;-72
2021/11/08 10:08:34;;;;;;;2.40;0.90;;;12.20;79.10;;;;;;5054179;28;20056;-72
2021/11/08 10:11:05;;;;;;;2.00;0.95;;;12.20;78.40;;;;;;5054272;28;20130;-72
2021/11/08 10:13:32;;;;;;;3.50;0.80;;;12.30;78.00;;;;;;5054360;28;20096;-73
2021/11/08 10:16:10;;;;;;;2.85;0.98;;;12.30;77.80;;;;;;5054262;28;20036;-73
2021/11/08 10:18:38;;;;;;;3.50;1.42;;;12.40;78.60;;;;;;5053409;28;20065;-73
2021/11/08 10:21:06;;;;;;;2.08;1.10;;;12.40;78.40;;;;;;5053080;28;20056;-73
2021/11/08 10:23:32;;;;;;;1.20;0.80;;;;;;;;;;5052676;28;20020;-73
2021/11/08 10:25:57;;;;;;;2.13;0.80;;;12.60;94.30;;;;;;5051957;28;20519;-73
2021/11/08 10:28:28;;;;;;;1.58;0.85;;;12.70;94.10;;;;;;5051758;28;20029;-72
2021/11/08 10:31:01;;;;;;;1.15;0.90;;;12.60;79.10;;;;;;5053495;28;20086;-73
2021/11/08 10:33:31;;;;;;;3.30;0.90;;;12.70;79.10;;;;;;5052892;28;20013;-72
2021/11/08 10:36:18;;;;;;;1.65;0.88;;;12.70;78.90;;;;;;5051979;28;20029;-71
2021/11/08 10:38:46;;;;;;;1.33;0.90;;;12.80;78.50;;;;;;5051772;28;20481;-76
2021/11/08 10:41:15;;;;;;;1.38;0.82;;;12.80;78.30;;;;;;5054193;28;20017;-71
2021/11/08 10:43:45;;;;;;;2.00;0.70;;;12.80;77.80;;;;;;5053644;28;20024;-76
2021/11/08 10:46:14;;;;;;;1.73;0.70;;;12.80;77.50;;;;;;5053264;28;20029;-74
2021/11/08 10:48:46;;;;;;;3.92;0.88;;;12.80;77.50;;;;;;5053092;28;20469;-75
2021/11/08 10:51:15;;;;;;;1.10;0.77;;;12.90;77.30;;;;;;5053290;28;20043;-71
2021/11/08 10:53:48;;;;;;;1.13;0.80;;;12.90;76.10;;;;;;5052256;28;20067;-75
2021/11/08 10:56:38;;;;;;;2.40;0.82;;;12.90;75.10;;;;;;5052320;28;20082;-72
2021/11/08 10:59:17;;;;;;;3.00;0.80;;;12.90;73.80;;;;;;5052209;28;20409;-74
2021/11/08 11:01:46;;;;;;;1.40;0.50;;;12.90;73.70;;;;;;5052910;28;20095;-75
2021/11/08 11:04:12;;;;;;;1.63;0.80;;;12.90;73.60;;;;;;5053235;28;20025;-71
2021/11/08 11:06:45;;;;;;;1.60;0.88;;;12.90;72.10;;;;;;5053408;28;20025;-71
2021/11/08 11:09:17;;;;;;;0.93;0.57;;;12.90;72.30;;;;;;5052882;28;20441;-72
2021/11/08 11:11:44;;;;;;;3.03;0.50;;;13.00;72.20;;;;;;5054462;28;20036;-78
2021/11/08 11:14:11;;;;;;;1.20;0.60;;;13.10;72.70;;;;;;5054370;28;20029;-73
2021/11/08 11:16:43;;;;;;;1.95;0.73;;;13.20;72.40;;;;;;5052489;28;20028;-76
2021/11/08 11:19:14;;;;;;;1.02;0.60;;;13.20;72.40;;;;;;5051600;28;20095;-72
2021/11/08 11:22:04;;;;;;;1.35;0.65;;;13.20;72.40;;;;;;5051807;28;20060;-72
2021/11/08 11:24:46;;;;;;;1.20;0.75;;;13.30;75.80;;;;;;5051549;28;20155;-73
2021/11/08 11:27:27;;;;;;;1.95;0.60;;;13.30;71.30;;;;;;5052706;28;20070;-72
2021/11/08 11:30:06;;;;;;;1.42;0.70;;;13.40;71.10;;;;;;5052638;28;20032;-73
2021/11/08 11:32:32;;;;;;;2.42;0.90;;;13.50;70.90;;;;;;5052921;28;20033;-75
2021/11/08 11:34:57;;;;;;;1.92;0.70;;;13.60;70.60;;;;;;5053323;28;20024;-78
2021/11/08 11:37:26;;;;;;;0.90;0.57;;;13.60;69.80;;;;;;5053264;28;20487;-76
2021/11/08 11:40:12;;;;;;;0.60;0.47;;;13.80;70.00;;;;;;5052865;28;20064;-77
2021/11/08 11:42:58;;;;;;;1.17;0.52;;;13.90;68.00;;;;;;5052978;28;20024;-73
2021/11/08 11:45:24;;;;;;;1.50;0.50;;;14.00;67.60;;;;;;5052553;28;20021;-73
2021/11/08 11:48:01;;;;;;;0.88;0.47;;;14.00;67.10;;;;;;5051377;28;20067;-73
2021/11/08 11:50:29;;;;;;;3.00;0.60;;;14.00;67.10;;;;;;5052806;28;20025;-73
2021/11/08 11:52:55;;;;;;;0.75;0.60;;;14.00;66.80;;;;;;5052715;28;20082;-73
2021/11/08 11:55:21;;;;;;;0.65;0.50;;;13.90;66.90;;;;;;5052758;28;20114;-73
2021/11/08 11:57:48;;;;;;;1.52;0.60;;;13.90;67.00;;;;;;5052577;28;20071;-73
2021/11/08 12:00:14;;;;;;;1.25;0.90;;;13.80;66.80;;;;;;5048908;28;20076;-74
2021/11/08 12:02:40;;;;;;;1.25;0.65;;;13.80;66.80;;;;;;5049115;28;20037;-73
2021/11/08 12:05:06;;;;;;;0.40;0.40;;;13.90;66.80;;;;;;5048899;28;20469;-73
2021/11/08 12:07:33;;;;;;;0.70;0.60;;;13.90;66.50;;;;;;5051599;28;20060;-74
2021/11/08 12:10:04;;;;;;;2.25;0.60;;;14.00;66.50;;;;;;5052126;28;20472;-75
2021/11/08 12:12:31;;;;;;;3.33;0.70;;;14.10;65.80;;;;;;5052233;28;20029;-72
2021/11/08 12:15:09;;;;;;;5.88;0.82;;;14.20;65.30;;;;;;5052059;28;20079;-74
2021/11/08 12:17:42;;;;;;;2.78;0.30;;;14.20;64.80;;;;;;5052162;28;20095;-73
2021/11/08 12:20:12;;;;;;;0.82;0.47;;;14.30;63.20;;;;;;5052356;28;20371;-73
2021/11/08 12:22:38;;;;;;;1.30;0.50;;;14.30;63.40;;;;;;5052175;28;20083;-73
2021/11/08 12:25:11;;;;;;;0.43;0.30;;;14.40;64.00;;;;;;5052011;28;20031;-74
2021/11/08 12:27:45;;;;;;;1.33;0.50;;;14.40;63.40;;;;;;5051746;28;20418;-74
2021/11/08 12:30:16;;;;;;;0.70;0.50;;;14.50;62.30;;;;;;5052689;28;20033;-73
2021/11/08 12:32:50;;;;;;;1.73;0.43;;;14.50;61.70;;;;;;5054775;28;20043;-73
2021/11/08 12:35:21;;;;;;;1.27;0.30;;;14.60;61.80;;;;;;5053781;28;20040;-73
2021/11/08 12:37:48;;;;;;;2.15;0.20;;;14.60;61.20;;;;;;5056043;28;20439;-74
2021/11/08 12:40:22;;;;;;;0.65;0.43;;;14.60;60.90;;;;;;5055391;28;20495;-74
2021/11/08 12:42:51;;;;;;;0.95;0.40;;;14.70;60.90;;;;;;5055103;28;20013;-74
2021/11/08 12:45:23;;;;;;;0.38;0.30;;;14.70;60.80;;;;;;5054214;28;20032;-75
2021/11/08 12:47:58;;;;;;;;;;;14.70;61.00;;;;;;5055432;28;20017;-74
2021/11/08 12:50:51;;;;;;;2.60;0.40;;;14.80;60.80;;;;;;5055008;28;19920;-75
2021/11/08 12:53:29;;;;;;;0.90;0.45;;;14.80;60.60;;;;;;5054654;28;20029;-75
2021/11/08 12:55:56;;;;;;;2.55;0.50;;;14.80;60.40;;;;;;5055212;28;20108;-74
2021/11/08 12:58:43;;;;;;;0.55;0.28;;;14.70;60.20;;;;;;5052881;28;20033;-75
2021/11/08 13:01:19;;;;;;;0.60;0.30;;;14.70;59.30;;;;;;5054830;28;20135;-73
2021/11/08 13:03:46;;;;;;;0.65;0.30;;;14.70;59.70;;;;;;5055253;28;20409;-75
2021/11/08 13:06:28;;;;;;;0.57;0.40;;;14.60;59.20;;;;;;5055227;28;20021;-73
2021/11/08 13:09:08;;;;;;;0.60;0.30;;;14.50;59.90;;;;;;5055035;28;20158;-73
2021/11/08 13:11:41;;;;;;;1.00;0.30;;;14.50;60.30;;;;;;5055033;28;20150;-74
2021/11/08 13:14:07;;;;;;;12.45;0.60;;;14.40;60.00;;;;;;5055114;28;20063;-73
2021/11/08 13:16:41;;;;;;;0.60;0.40;;;14.30;59.50;;;;;;5052002;28;20060;-73
2021/11/08 13:19:16;;;;;;;0.60;0.50;;;14.30;59.40;;;;;;5051445;28;20060;-74
2021/11/08 13:21:42;;;;;;;0.52;0.28;;;14.20;59.40;;;;;;5054820;28;20103;-74
2021/11/08 13:24:10;;;;;;;3.67;0.43;;;14.20;60.00;;;;;;5053915;28;20025;-73
2021/11/08 13:26:45;;;;;;;0.50;0.30;;;14.10;60.80;;;;;;5055424;28;20092;-73
2021/11/08 13:29:21;;;;;;;2.92;0.47;;;14.00;60.50;;;;;;5055323;28;20032;-73
2021/11/08 13:31:49;;;;;;;1.17;0.30;;;14.00;60.40;;;;;;5055273;28;20037;-74
2021/11/08 13:34:16;;;;;;;2.20;0.70;;;14.00;60.60;;;;;;5053658;28;20247;-74
2021/11/08 13:36:43;;;;;;;3.38;0.40;;;13.90;60.70;;;;;;5052649;28;20469;-74
2021/11/08 13:39:09;;;;;;;2.38;0.30;;;13.80;60.70;;;;;;5054273;28;20143;-73
2021/11/08 13:41:36;;;;;;;1.30;0.40;;;13.80;60.60;;;;;;5051260;28;20424;-73
2021/11/08 13:44:10;;;;;;;1.13;0.40;;;13.80;61.50;;;;;;5053906;28;20021;-74
2021/11/08 13:46:37;;;;;;;0.85;0.30;;;13.70;60.60;;;;;;5055002;28;20042;-74
2021/11/08 13:49:15;;;;;;;0.68;0.30;;;13.70;61.50;;;;;;5055018;28;20028;-73
2021/11/08 13:51:51;;;;;;;3.10;0.50;;;13.70;61.10;;;;;;5055012;28;20440;-73
2021/11/08 13:54:23;;;;;;;0.68;0.40;;;13.70;61.10;;;;;;5054789;28;20029;-73
2021/11/08 13:56:55;;;;;;;2.05;0.90;;;13.60;61.80;;;;;;5054876;28;20025;-73
2021/11/08 13:59:27;;;;;;;1.70;0.60;;;13.70;61.20;;;;;;5054770;28;20028;-73
2021/11/08 14:01:57;;;;;;;1.08;0.40;;;13.70;60.70;;;;;;5054992;28;20029;-74
2021/11/08 14:04:34;;;;;;;5.72;0.60;;;13.60;60.60;;;;;;5055160;28;20092;-73
2021/11/08 14:07:02;;;;;;;0.82;0.50;;;13.60;62.00;;;;;;5054721;28;20037;-73
2021/11/08 14:09:28;;;;;;;1.70;0.90;;;13.70;60.80;;;;;;5054537;28;20059;-73
2021/11/08 14:11:57;;;;;;;2.72;0.80;;;13.60;61.00;;;;;;5054700;28;20028;-74
2021/11/08 14:14:26;;;;;;;2.10;0.70;;;13.60;60.00;;;;;;5054733;28;20131;-74
2021/11/08 14:16:55;;;;;;;0.70;0.47;;;13.60;60.60;;;;;;5054523;28;20036;-73
2021/11/08 14:19:21;;;;;;;0.60;0.50;;;13.60;60.60;;;;;;5054186;28;20421;-73
2021/11/08 14:21:51;;;;;;;1.15;0.50;;;13.60;60.60;;;;;;5054054;28;20511;-73
2021/11/08 14:24:22;;;;;;;0.75;0.50;;;13.50;60.70;;;;;;5053705;28;20029;-75
2021/11/08 14:26:53;;;;;;;2.92;0.60;;;13.50;61.80;;;;;;5053864;28;20082;-73
2021/11/08 14:29:30;;;;;;;1.00;0.50;;;13.40;61.10;;;;;;5053914;28;20135;-75
2021/11/08 14:31:59;;;;;;;0.88;0.65;;;13.40;61.50;;;;;;5053830;28;20036;-75
2021/11/08 14:34:31;;;;;;;1.85;0.70;;;13.50;74.40;;;;;;5053766;28;20025;-73
2021/11/08 14:36:57;;;;;;;0.77;0.52;;;;;;;;;;5054442;28;20024;-75